Forester — DIUT — position and weather

sailwx.info

Track history (hours):
 
Tides and Currents Weather Stations Pressure Air Temp Water Temp Dewpoint Dewpoint Depression Visibility Wind Speed Wind Dir Waves Ship Positions

Forester

Last reported at 2014-Dec-16 06:33 UTC. Time now 2014-Dec-18 00:56 UTC.
Position N 35°55' W 005°12'.

Length 100 m; draft 7.3 m.

Type: Ship. MMSI: 211233870.

Date/timePositionNaut miles runAvg speedWind from/ knotsBaromVisibWave heightAir tempDewpointWater temp
2014-Dec-16 06:33N 35°55' W 005°12'1313.1
2014-Dec-16 05:34N 35°57' W 005°28'261 9.2
2014-Dec-15 01:15N 38°24' W 009°59'810.8
2014-Dec-15 00:30N 38°32' W 010°02'1510.5
2014-Dec-14 23:07N 38°46' W 010°05'  
2014-Dec-09 07:05N 50°24' W 001°26'610.2
2014-Dec-09 06:31N 50°26' W 001°17'1111.3
2014-Dec-09 05:33N 50°28' W 001°00'1312.4
2014-Dec-09 04:33N 50°29' W 000°41'1312.8
2014-Dec-09 03:33N 50°31' W 000°21'1212.3
2014-Dec-09 02:33N 50°33' W 000°02'1211.7
2014-Dec-09 01:33N 50°35' E 000°16'1110.9
2014-Dec-09 00:33N 50°39' E 000°32'1010.3
2014-Dec-08 23:33N 50°44' E 000°46'1110.5
2014-Dec-08 22:32N 50°50' E 000°60'1212.2
2014-Dec-08 21:34N 50°58' E 001°14'1515.3
2014-Dec-08 20:34N 51°08' E 001°34'1414.5
2014-Dec-08 19:33N 51°19' E 001°48'1313.0
2014-Dec-08 18:34N 51°31' E 001°57'1211.7
2014-Dec-08 17:34N 51°41' E 002°06'140 8.2
2014-Dec-08 00:33N 53°27' E 004°37'8 7.6
2014-Dec-07 23:33N 53°30' E 004°48'7 6.9
2014-Dec-07 22:33N 53°32' E 004°59'7 6.6
2014-Dec-07 21:33N 53°35' E 005°10'6 6.3
2014-Dec-07 20:33N 53°37' E 005°20'6 6.0
2014-Dec-07 19:33N 53°38' E 005°30'6 6.2
2014-Dec-07 18:33N 53°40' E 005°39'6 6.4
2014-Dec-07 17:34N 53°42' E 005°50'8 7.4
2014-Dec-07 16:33N 53°45' E 006°02'51 6.2
2014-Dec-07 08:17N 53°58' E 007°25'6 7.9
2014-Dec-07 07:33N 53°59' E 007°35'8 7.9
2014-Dec-07 06:33N 53°54' E 007°45'1010.1
2014-Dec-07 05:33N 53°51' E 008°02'1212.0
2014-Dec-07 04:34N 53°43' E 008°17'1313.4
2014-Dec-07 03:33N 53°34' E 008°33'1110.6
2014-Dec-07 02:33N 53°23' E 008°30'3 3.0
2014-Dec-07 01:32N 53°20' E 008°30'0 0.0
2014-Dec-07 00:32N 53°20' E 008°30'0 0.0
2014-Dec-06 23:32N 53°20' E 008°30'0 0.0
2014-Dec-06 22:32N 53°20' E 008°30'0 0.0
2014-Dec-06 21:32N 53°20' E 008°30'0 0.0
2014-Dec-06 20:32N 53°20' E 008°30'0 0.0
2014-Dec-06 19:32N 53°20' E 008°30'0 0.0
2014-Dec-06 18:32N 53°20' E 008°30'0 0.0
2014-Dec-06 17:32N 53°20' E 008°30'0 0.0
2014-Dec-06 16:32N 53°20' E 008°30'0 0.0
2014-Dec-06 15:32N 53°20' E 008°30'0 0.0
2014-Dec-06 14:32N 53°20' E 008°30'0 0.0
2014-Dec-06 13:32N 53°20' E 008°30'0 0.0
2014-Dec-06 12:32N 53°20' E 008°30'0 0.0
2014-Dec-06 11:29N 53°20' E 008°30'0 0.0
2014-Dec-06 10:32N 53°20' E 008°30'0 0.0
2014-Dec-06 09:29N 53°20' E 008°30'0 0.0
2014-Dec-06 08:31N 53°20' E 008°30'0 0.0
2014-Dec-06 07:31N 53°20' E 008°30'  
Track history (hours):
 
Tides and Currents Weather Stations Pressure Air Temp Water Temp Dewpoint Dewpoint Depression Visibility Wind Speed Wind Dir Waves Ship Positions

Forester

Last reported at 2014-Dec-16 06:33 UTC. Time now 2014-Dec-18 00:56 UTC.
Position N 35°55' W 005°12'.

Length 100 m; draft 7.3 m.

Type: Ship. MMSI: 211233870.

Date/timePositionNaut miles runAvg speedWind from/ knotsBaromVisibWave heightAir tempDewpointWater temp
2014-Dec-16 06:33N 35°55' W 005°12'1313.1
2014-Dec-16 05:34N 35°57' W 005°28'261 9.2
2014-Dec-15 01:15N 38°24' W 009°59'810.8
2014-Dec-15 00:30N 38°32' W 010°02'1510.5
2014-Dec-14 23:07N 38°46' W 010°05'  
2014-Dec-09 07:05N 50°24' W 001°26'610.2
2014-Dec-09 06:31N 50°26' W 001°17'1111.3
2014-Dec-09 05:33N 50°28' W 001°00'1312.4
2014-Dec-09 04:33N 50°29' W 000°41'1312.8
2014-Dec-09 03:33N 50°31' W 000°21'1212.3
2014-Dec-09 02:33N 50°33' W 000°02'1211.7
2014-Dec-09 01:33N 50°35' E 000°16'1110.9
2014-Dec-09 00:33N 50°39' E 000°32'1010.3
2014-Dec-08 23:33N 50°44' E 000°46'1110.5
2014-Dec-08 22:32N 50°50' E 000°60'1212.2
2014-Dec-08 21:34N 50°58' E 001°14'1515.3
2014-Dec-08 20:34N 51°08' E 001°34'1414.5
2014-Dec-08 19:33N 51°19' E 001°48'1313.0
2014-Dec-08 18:34N 51°31' E 001°57'1211.7
2014-Dec-08 17:34N 51°41' E 002°06'140 8.2
2014-Dec-08 00:33N 53°27' E 004°37'8 7.6
2014-Dec-07 23:33N 53°30' E 004°48'7 6.9
2014-Dec-07 22:33N 53°32' E 004°59'7 6.6
2014-Dec-07 21:33N 53°35' E 005°10'6 6.3
2014-Dec-07 20:33N 53°37' E 005°20'6 6.0
2014-Dec-07 19:33N 53°38' E 005°30'6 6.2
2014-Dec-07 18:33N 53°40' E 005°39'6 6.4
2014-Dec-07 17:34N 53°42' E 005°50'8 7.4
2014-Dec-07 16:33N 53°45' E 006°02'51 6.2
2014-Dec-07 08:17N 53°58' E 007°25'6 7.9
2014-Dec-07 07:33N 53°59' E 007°35'8 7.9
2014-Dec-07 06:33N 53°54' E 007°45'1010.1
2014-Dec-07 05:33N 53°51' E 008°02'1212.0
2014-Dec-07 04:34N 53°43' E 008°17'1313.4
2014-Dec-07 03:33N 53°34' E 008°33'1110.6
2014-Dec-07 02:33N 53°23' E 008°30'3 3.0
2014-Dec-07 01:32N 53°20' E 008°30'0 0.0
2014-Dec-07 00:32N 53°20' E 008°30'0 0.0
2014-Dec-06 23:32N 53°20' E 008°30'0 0.0
2014-Dec-06 22:32N 53°20' E 008°30'0 0.0
2014-Dec-06 21:32N 53°20' E 008°30'0 0.0
2014-Dec-06 20:32N 53°20' E 008°30'0 0.0
2014-Dec-06 19:32N 53°20' E 008°30'0 0.0
2014-Dec-06 18:32N 53°20' E 008°30'0 0.0
2014-Dec-06 17:32N 53°20' E 008°30'0 0.0
2014-Dec-06 16:32N 53°20' E 008°30'0 0.0
2014-Dec-06 15:32N 53°20' E 008°30'0 0.0
2014-Dec-06 14:32N 53°20' E 008°30'0 0.0
2014-Dec-06 13:32N 53°20' E 008°30'0 0.0
2014-Dec-06 12:32N 53°20' E 008°30'0 0.0
2014-Dec-06 11:29N 53°20' E 008°30'0 0.0
2014-Dec-06 10:32N 53°20' E 008°30'0 0.0
2014-Dec-06 09:29N 53°20' E 008°30'0 0.0
2014-Dec-06 08:31N 53°20' E 008°30'0 0.0
2014-Dec-06 07:31N 53°20' E 008°30'  

Dump ship's entire track history